createdAt,value
2022-09-07T00:02:07.699Z,101209.00
2022-09-07T00:04:34.399Z,101210.00
2022-09-07T00:07:00.914Z,101207.00
2022-09-07T00:09:27.392Z,101204.00
2022-09-07T00:11:53.897Z,101208.00
2022-09-07T00:14:22.639Z,101208.00
2022-09-07T00:16:49.183Z,101210.00
2022-09-07T00:19:15.729Z,101199.00
2022-09-07T00:21:42.307Z,101207.00
2022-09-07T00:24:08.895Z,101210.00
2022-09-07T00:26:35.502Z,101218.00
2022-09-07T00:29:02.706Z,101208.00
2022-09-07T00:31:29.933Z,101213.00
2022-09-07T00:33:57.931Z,101206.00
2022-09-07T00:36:24.864Z,101213.00
2022-09-07T00:38:51.642Z,101216.00
2022-09-07T00:41:18.638Z,101221.00
2022-09-07T00:43:46.941Z,101227.00
2022-09-07T00:46:15.698Z,101222.00
2022-09-07T00:48:52.530Z,101232.00
2022-09-07T00:51:23.573Z,101235.00
2022-09-07T00:53:54.397Z,101238.00
2022-09-07T00:56:26.739Z,101241.00
2022-09-07T00:58:53.532Z,101244.00
2022-09-07T01:01:20.495Z,101247.00
2022-09-07T01:03:48.846Z,101263.00
2022-09-07T01:06:20.415Z,101253.00
2022-09-07T01:08:48.176Z,101250.00
2022-09-07T01:11:14.982Z,101253.00
2022-09-07T01:13:43.019Z,101250.00
2022-09-07T01:16:18.737Z,101260.00
2022-09-07T01:18:54.266Z,101252.00
2022-09-07T01:21:29.660Z,101261.00
2022-09-07T01:24:12.392Z,101257.00
2022-09-07T01:26:54.274Z,101257.00
2022-09-07T01:29:28.017Z,101267.00
2022-09-07T01:32:01.504Z,101261.00
2022-09-07T01:34:30.360Z,101263.00
2022-09-07T01:37:05.678Z,101264.00
2022-09-07T01:39:50.571Z,101265.00
2022-09-07T01:42:20.008Z,101255.00
2022-09-07T01:45:00.874Z,101255.00
2022-09-07T01:47:33.450Z,101265.00
2022-09-07T01:50:07.708Z,101266.00
2022-09-07T01:52:39.666Z,101270.00
2022-09-07T01:55:10.023Z,101273.00
2022-09-07T01:57:39.342Z,101267.00
2022-09-07T02:00:09.742Z,101277.00
2022-09-07T02:02:48.926Z,101272.00
2022-09-07T02:05:32.106Z,101271.00
2022-09-07T02:08:15.026Z,101277.00
2022-09-07T02:10:43.865Z,101280.00
2022-09-07T02:13:13.982Z,101273.00
2022-09-07T02:15:46.677Z,101277.00
2022-09-07T02:18:16.496Z,101284.00
2022-09-07T02:20:46.219Z,101275.00
2022-09-07T02:23:17.264Z,101276.00
2022-09-07T02:25:45.765Z,101275.00
2022-09-07T02:28:17.702Z,101278.00
2022-09-07T02:30:44.452Z,101277.00
2022-09-07T02:33:10.970Z,101271.00
2022-09-07T02:35:37.468Z,101271.00
2022-09-07T02:38:04.953Z,101267.00
2022-09-07T02:40:31.785Z,101267.00
2022-09-07T02:43:04.867Z,101268.00
2022-09-07T02:45:47.255Z,101256.00
2022-09-07T02:48:21.960Z,101248.00
2022-09-07T02:51:01.141Z,101254.00
2022-09-07T02:53:27.600Z,101251.00
2022-09-07T02:56:09.811Z,101251.00
2022-09-07T02:58:48.249Z,101251.00
2022-09-07T03:01:23.875Z,101255.00
2022-09-07T03:04:01.144Z,101252.00
2022-09-07T03:06:41.586Z,101248.00
2022-09-07T03:09:11.274Z,101252.00
2022-09-07T03:11:37.783Z,101247.00
2022-09-07T03:14:14.074Z,101247.00
2022-09-07T03:16:40.521Z,101252.00
2022-09-07T03:19:06.974Z,101240.00
2022-09-07T03:21:33.482Z,101239.00
2022-09-07T03:23:59.966Z,101235.00
2022-09-07T03:26:26.394Z,101228.00
2022-09-07T03:28:53.087Z,101228.00
2022-09-07T03:31:20.040Z,101226.00
2022-09-07T03:33:46.744Z,101218.00
2022-09-07T03:36:13.220Z,101221.00
2022-09-07T03:38:39.709Z,101226.00
2022-09-07T03:41:07.302Z,101229.00
2022-09-07T03:43:33.850Z,101224.00
2022-09-07T03:46:01.222Z,101227.00
2022-09-07T03:48:30.153Z,101230.00
2022-09-07T03:51:16.992Z,101221.00
2022-09-07T03:53:44.664Z,101218.00
2022-09-07T03:56:12.363Z,101223.00
2022-09-07T03:58:38.862Z,101219.00
2022-09-07T04:01:10.800Z,101219.00
2022-09-07T04:03:37.764Z,101215.00
2022-09-07T04:06:04.447Z,101215.00
2022-09-07T04:08:31.972Z,101205.00
2022-09-07T04:10:59.185Z,101211.00
2022-09-07T04:13:26.234Z,101197.00
2022-09-07T04:15:54.018Z,101196.00
2022-09-07T04:18:20.651Z,101193.00
2022-09-07T04:20:47.549Z,101200.00
2022-09-07T04:23:14.015Z,101201.00
2022-09-07T04:25:47.127Z,101191.00
2022-09-07T04:28:13.616Z,101190.00
2022-09-07T04:30:40.145Z,101199.00
2022-09-07T04:33:06.633Z,101197.00
2022-09-07T04:35:36.302Z,101199.00
2022-09-07T04:38:02.904Z,101206.00
2022-09-07T04:40:29.374Z,101197.00
2022-09-07T04:42:55.826Z,101193.00
2022-09-07T04:45:22.310Z,101194.00
2022-09-07T04:47:49.082Z,101204.00
2022-09-07T04:50:16.905Z,101206.00
2022-09-07T04:52:43.838Z,101211.00
2022-09-07T04:55:10.524Z,101196.00
2022-09-07T04:57:37.474Z,101196.00
2022-09-07T05:00:08.035Z,101192.00
2022-09-07T05:02:34.571Z,101193.00
2022-09-07T05:05:02.863Z,101192.00
2022-09-07T05:07:29.552Z,101188.00
2022-09-07T05:09:56.732Z,101185.00
2022-09-07T05:12:23.241Z,101193.00
2022-09-07T05:14:49.744Z,101195.00
2022-09-07T05:17:16.313Z,101193.00
2022-09-07T05:19:42.808Z,101197.00
2022-09-07T05:22:09.342Z,101202.00
2022-09-07T05:24:36.787Z,101201.00
2022-09-07T05:27:03.946Z,101202.00
2022-09-07T05:32:17.302Z,101199.00
2022-09-07T05:34:43.798Z,101202.00
2022-09-07T05:37:10.400Z,101205.00
2022-09-07T05:39:36.984Z,101201.00
2022-09-07T05:42:03.696Z,101200.00
2022-09-07T05:44:47.169Z,101201.00
2022-09-07T05:47:13.971Z,101206.00
2022-09-07T05:49:40.425Z,101206.00
2022-09-07T05:52:07.195Z,101211.00
2022-09-07T05:54:33.751Z,101218.00
2022-09-07T05:57:00.228Z,101210.00
2022-09-07T05:59:26.669Z,101216.00
2022-09-07T06:01:53.295Z,101216.00
2022-09-07T06:04:19.913Z,101217.00
2022-09-07T06:06:59.322Z,101218.00
2022-09-07T06:09:32.945Z,101218.00
2022-09-07T06:11:59.478Z,101217.00
2022-09-07T06:14:25.918Z,101220.00
2022-09-07T06:16:52.420Z,101228.00
2022-09-07T06:19:18.944Z,101221.00
2022-09-07T06:21:45.509Z,101223.00
2022-09-07T06:24:12.103Z,101224.00
2022-09-07T06:26:38.625Z,101225.00
2022-09-07T06:29:05.081Z,101216.00
2022-09-07T06:31:31.706Z,101214.00
2022-09-07T06:33:58.862Z,101214.00
2022-09-07T06:36:27.334Z,101219.00
2022-09-07T06:38:55.307Z,101227.00
2022-09-07T06:44:09.272Z,101217.00
2022-09-07T06:49:23.552Z,101215.00
2022-09-07T06:51:50.054Z,101214.00
2022-09-07T06:57:09.298Z,101221.00
2022-09-07T06:59:39.268Z,101227.00
2022-09-07T07:02:06.410Z,101226.00
2022-09-07T07:04:37.665Z,101227.00
2022-09-07T07:07:06.389Z,101231.00
2022-09-07T07:09:32.839Z,101229.00
2022-09-07T07:11:59.264Z,101231.00
2022-09-07T07:14:25.750Z,101233.00
2022-09-07T07:16:52.195Z,101231.00
2022-09-07T07:19:18.672Z,101234.00
2022-09-07T07:24:31.692Z,101220.00
2022-09-07T07:26:58.199Z,101220.00
2022-09-07T07:29:27.590Z,101211.00
2022-09-07T07:31:54.835Z,101209.00
2022-09-07T07:34:21.382Z,101208.00
2022-09-07T07:36:47.955Z,101213.00
2022-09-07T07:42:03.331Z,101217.00
2022-09-07T07:44:31.995Z,101221.00
2022-09-07T07:47:02.521Z,101207.00
2022-09-07T07:49:29.006Z,101205.00
2022-09-07T07:54:42.717Z,101214.00
2022-09-07T07:57:09.165Z,101216.00
2022-09-07T07:59:35.694Z,101228.00
2022-09-07T08:02:05.087Z,101215.00
2022-09-07T08:04:32.610Z,101228.00
2022-09-07T08:06:59.068Z,101215.00
2022-09-07T08:09:26.068Z,101220.00
2022-09-07T08:11:52.587Z,101218.00
2022-09-07T08:14:19.047Z,101214.00
2022-09-07T08:16:46.059Z,101229.00
2022-09-07T08:19:12.597Z,101226.00
2022-09-07T08:21:39.074Z,101218.00
2022-09-07T08:24:05.521Z,101206.00
2022-09-07T08:26:31.954Z,101207.00
2022-09-07T08:28:58.755Z,101214.00
2022-09-07T08:31:25.234Z,101227.00
2022-09-07T08:33:51.636Z,101226.00
2022-09-07T08:36:19.401Z,101239.00
2022-09-07T08:38:46.042Z,101232.00
2022-09-07T08:41:30.682Z,101231.00
2022-09-07T08:44:02.660Z,101237.00
2022-09-07T08:46:32.281Z,101234.00
2022-09-07T08:48:59.934Z,101232.00
2022-09-07T08:51:29.447Z,101229.00
2022-09-07T08:53:55.942Z,101232.00
2022-09-07T08:56:24.805Z,101224.00
2022-09-07T08:58:53.228Z,101233.00
2022-09-07T09:01:36.681Z,101229.00
2022-09-07T09:04:21.090Z,101236.00
2022-09-07T09:07:03.754Z,101235.00
2022-09-07T09:09:50.915Z,101229.00
2022-09-07T09:12:22.527Z,101222.00
2022-09-07T09:14:55.894Z,101230.00
2022-09-07T09:17:37.439Z,101235.00
2022-09-07T09:20:12.093Z,101225.00
2022-09-07T09:22:38.923Z,101238.00
2022-09-07T09:25:31.851Z,101233.00
2022-09-07T09:27:58.292Z,101230.00
2022-09-07T09:30:25.065Z,101231.00
2022-09-07T09:32:52.863Z,101227.00
2022-09-07T09:35:34.525Z,101239.00
2022-09-07T09:38:03.616Z,101233.00
2022-09-07T09:40:31.061Z,101232.00
2022-09-07T09:43:17.439Z,101230.00
2022-09-07T09:48:37.410Z,101225.00
2022-09-07T09:53:59.326Z,101224.00
2022-09-07T09:56:37.714Z,101215.00
2022-09-07T10:05:26.918Z,101208.00
2022-09-07T10:07:53.778Z,101218.00
2022-09-07T10:10:20.453Z,101210.00
2022-09-07T10:12:46.975Z,101204.00
2022-09-07T10:15:45.905Z,101211.00
2022-09-07T10:18:41.446Z,101207.00
2022-09-07T10:21:22.992Z,101206.00
2022-09-07T10:23:58.388Z,101201.00
2022-09-07T10:26:24.779Z,101204.00
2022-09-07T10:29:07.310Z,101198.00
2022-09-07T10:31:37.094Z,101192.00
2022-09-07T10:34:26.960Z,101190.00
2022-09-07T10:37:06.931Z,101193.00
2022-09-07T10:39:37.004Z,101192.00
2022-09-07T10:42:09.634Z,101189.00
2022-09-07T10:44:41.915Z,101196.00
2022-09-07T10:47:11.354Z,101189.00
2022-09-07T10:52:45.915Z,101186.00
2022-09-07T10:55:19.091Z,101194.00
2022-09-07T10:58:00.159Z,101192.00
2022-09-07T11:00:29.132Z,101194.00
2022-09-07T11:05:42.283Z,101188.00
2022-09-07T11:08:27.394Z,101192.00
2022-09-07T11:10:53.866Z,101188.00
2022-09-07T11:13:22.973Z,101181.00
2022-09-07T11:15:52.262Z,101181.00
2022-09-07T11:18:18.736Z,101186.00
2022-09-07T11:20:47.027Z,101184.00
2022-09-07T11:23:13.434Z,101181.00
2022-09-07T11:26:01.917Z,101188.00
2022-09-07T11:28:43.951Z,101178.00
2022-09-07T11:31:17.633Z,101175.00
2022-09-07T11:36:44.364Z,101179.00
2022-09-07T11:39:14.363Z,101183.00
2022-09-07T11:41:42.192Z,101181.00
2022-09-07T11:44:21.800Z,101175.00
2022-09-07T11:46:50.791Z,101170.00
2022-09-07T11:49:26.288Z,101168.00
2022-09-07T11:51:55.448Z,101173.00
2022-09-07T11:54:41.365Z,101166.00
2022-09-07T11:57:13.754Z,101170.00
2022-09-07T11:59:49.560Z,101174.00
2022-09-07T12:02:57.801Z,101166.00
2022-09-07T12:05:24.431Z,101168.00
2022-09-07T12:08:02.148Z,101173.00
2022-09-07T12:10:28.639Z,101175.00
2022-09-07T12:12:56.654Z,101168.00
2022-09-07T12:15:41.895Z,101161.00
2022-09-07T12:18:17.331Z,101164.00
2022-09-07T12:20:44.721Z,101164.00
2022-09-07T12:23:16.996Z,101165.00
2022-09-07T12:25:44.635Z,101163.00
2022-09-07T12:28:22.925Z,101156.00
2022-09-07T12:30:55.017Z,101156.00
2022-09-07T12:33:25.691Z,101156.00
2022-09-07T12:35:52.504Z,101152.00
2022-09-07T12:38:18.878Z,101151.00
2022-09-07T12:40:45.347Z,101146.00
2022-09-07T12:43:14.750Z,101141.00
2022-09-07T12:45:42.029Z,101135.00
2022-09-07T12:48:11.501Z,101139.00
2022-09-07T12:50:53.184Z,101137.00
2022-09-07T12:53:24.408Z,101134.00
2022-09-07T12:58:51.873Z,101131.00
2022-09-07T13:01:50.599Z,101121.00
2022-09-07T13:04:41.115Z,101130.00
2022-09-07T13:07:10.685Z,101128.00
2022-09-07T13:09:38.324Z,101133.00
2022-09-07T13:15:06.427Z,101120.00
2022-09-07T13:17:34.028Z,101117.00
2022-09-07T13:20:01.214Z,101115.00
2022-09-07T13:22:30.860Z,101113.00
2022-09-07T13:25:01.597Z,101112.00
2022-09-07T13:28:03.889Z,101105.00
2022-09-07T13:30:33.265Z,101112.00
2022-09-07T13:33:28.917Z,101105.00
2022-09-07T13:36:00.366Z,101103.00
2022-09-07T13:38:27.247Z,101087.00
2022-09-07T13:40:54.875Z,101093.00
2022-09-07T13:43:23.021Z,101094.00
2022-09-07T13:45:55.313Z,101093.00
2022-09-07T13:48:44.373Z,101091.00
2022-09-07T13:51:19.957Z,101092.00
2022-09-07T13:53:56.041Z,101092.00
2022-09-07T13:56:41.416Z,101095.00
2022-09-07T13:59:12.270Z,101103.00
2022-09-07T14:01:43.002Z,101095.00
2022-09-07T14:04:32.567Z,101091.00
2022-09-07T14:07:08.871Z,101086.00
2022-09-07T14:09:35.368Z,101085.00
2022-09-07T14:12:02.001Z,101079.00
2022-09-07T14:14:33.042Z,101079.00
2022-09-07T14:16:59.617Z,101075.00
2022-09-07T14:19:32.006Z,101083.00
2022-09-07T14:22:03.070Z,101081.00
2022-09-07T14:24:31.270Z,101079.00
2022-09-07T14:26:58.082Z,101081.00
2022-09-07T14:29:26.696Z,101069.00
2022-09-07T14:31:53.654Z,101068.00
2022-09-07T14:34:23.362Z,101078.00
2022-09-07T14:36:50.732Z,101067.00
2022-09-07T14:39:18.674Z,101060.00
2022-09-07T14:41:45.944Z,101062.00
2022-09-07T14:44:28.670Z,101053.00
2022-09-07T14:46:57.101Z,101047.00
2022-09-07T14:49:24.286Z,101054.00
2022-09-07T14:51:51.868Z,101050.00
2022-09-07T14:54:23.591Z,101051.00
2022-09-07T14:57:01.906Z,101053.00
2022-09-07T14:59:31.341Z,101047.00
2022-09-07T15:02:16.683Z,101045.00
2022-09-07T15:04:43.144Z,101042.00
2022-09-07T15:07:28.367Z,101042.00
2022-09-07T15:09:54.991Z,101039.00
2022-09-07T15:12:36.486Z,101036.00
2022-09-07T15:15:26.081Z,101032.00
2022-09-07T15:17:54.514Z,101030.00
2022-09-07T15:20:47.281Z,101029.00
2022-09-07T15:23:17.644Z,101027.00
2022-09-07T15:25:50.296Z,101023.00
2022-09-07T15:34:10.125Z,101009.00
2022-09-07T15:36:40.733Z,101015.00
2022-09-07T15:39:08.207Z,101018.00
2022-09-07T15:41:34.869Z,101019.00
2022-09-07T15:44:01.430Z,101015.00
2022-09-07T15:46:28.138Z,101021.00
2022-09-07T15:48:55.265Z,101015.00
2022-09-07T15:54:12.909Z,101018.00
2022-09-07T15:56:40.485Z,101024.00
2022-09-07T15:59:07.167Z,101014.00
2022-09-07T16:04:20.649Z,101013.00
2022-09-07T16:06:49.931Z,101018.00
2022-09-07T16:09:17.508Z,101009.00
2022-09-07T16:11:44.303Z,101009.00
2022-09-07T16:14:12.429Z,101009.00
2022-09-07T16:19:25.263Z,100997.00
2022-09-07T16:21:51.728Z,101000.00
2022-09-07T16:24:18.230Z,100994.00
2022-09-07T16:26:44.895Z,100989.00
2022-09-07T16:29:11.340Z,100988.00
2022-09-07T16:31:38.437Z,100983.00
2022-09-07T16:34:04.975Z,100985.00
2022-09-07T16:36:31.404Z,100986.00
2022-09-07T16:38:59.873Z,100979.00
2022-09-07T16:41:29.145Z,100989.00
2022-09-07T16:43:55.902Z,100984.00
2022-09-07T16:46:23.677Z,100981.00
2022-09-07T16:48:50.530Z,100977.00
2022-09-07T16:51:19.766Z,100982.00
2022-09-07T16:53:46.230Z,100985.00
2022-09-07T16:56:13.783Z,100986.00
2022-09-07T16:58:41.626Z,100978.00
2022-09-07T17:01:09.539Z,100970.00
2022-09-07T17:03:36.901Z,100973.00
2022-09-07T17:06:04.177Z,100979.00
2022-09-07T17:08:30.736Z,100972.00
2022-09-07T17:11:07.630Z,100981.00
2022-09-07T17:13:34.802Z,100978.00
2022-09-07T17:16:02.188Z,100980.00
2022-09-07T17:21:19.773Z,100990.00
2022-09-07T17:23:53.941Z,100989.00
2022-09-07T17:26:22.486Z,100983.00
2022-09-07T17:28:50.017Z,100979.00
2022-09-07T17:34:07.338Z,100957.00
2022-09-07T17:36:34.536Z,100961.00
2022-09-07T17:39:18.049Z,100959.00
2022-09-07T17:41:45.613Z,100950.00
2022-09-07T17:44:12.198Z,100952.00
2022-09-07T17:46:38.782Z,100958.00
2022-09-07T17:49:10.494Z,100954.00
2022-09-07T17:51:37.004Z,100961.00
2022-09-07T17:54:09.662Z,100960.00
2022-09-07T17:56:36.704Z,100962.00
2022-09-07T18:01:50.904Z,100962.00
2022-09-07T18:04:19.835Z,100963.00
2022-09-07T18:06:49.120Z,100959.00
2022-09-07T18:09:15.868Z,100961.00
2022-09-07T18:11:45.765Z,100958.00
2022-09-07T18:14:14.594Z,100958.00
2022-09-07T18:16:42.701Z,100956.00
2022-09-07T18:19:11.051Z,100957.00
2022-09-07T18:21:38.219Z,100950.00
2022-09-07T18:24:07.472Z,100937.00
2022-09-07T18:26:35.616Z,100943.00
2022-09-07T18:29:04.199Z,100948.00
2022-09-07T18:31:31.444Z,100949.00
2022-09-07T18:33:58.536Z,100959.00
2022-09-07T18:36:25.996Z,100958.00
2022-09-07T18:38:52.656Z,100965.00
2022-09-07T18:41:19.836Z,100967.00
2022-09-07T18:43:48.920Z,100965.00
2022-09-07T18:46:22.548Z,100970.00
2022-09-07T18:48:49.471Z,100968.00
2022-09-07T18:51:16.708Z,100970.00
2022-09-07T18:53:44.723Z,100962.00
2022-09-07T18:56:15.172Z,100962.00
2022-09-07T18:58:41.970Z,100963.00
2022-09-07T19:01:09.817Z,100960.00
2022-09-07T19:03:36.627Z,100957.00
2022-09-07T19:06:04.995Z,100956.00
2022-09-07T19:08:32.312Z,100954.00
2022-09-07T19:11:09.306Z,100962.00
2022-09-07T19:13:36.168Z,100957.00
2022-09-07T19:16:03.638Z,100966.00
2022-09-07T19:18:32.931Z,100957.00
2022-09-07T19:21:06.641Z,100961.00
2022-09-07T19:23:33.710Z,100958.00
2022-09-07T19:26:01.208Z,100961.00
2022-09-07T19:28:29.585Z,100956.00
2022-09-07T19:30:56.066Z,100961.00
2022-09-07T19:33:22.667Z,100959.00
2022-09-07T19:35:49.146Z,100966.00
2022-09-07T19:38:15.946Z,100956.00
2022-09-07T19:40:42.580Z,100949.00
2022-09-07T19:43:09.027Z,100949.00
2022-09-07T19:45:39.942Z,100938.00
2022-09-07T19:48:06.385Z,100953.00
2022-09-07T19:50:33.021Z,100950.00
2022-09-07T19:52:59.571Z,100940.00
2022-09-07T19:55:26.008Z,100944.00
2022-09-07T19:57:55.695Z,100934.00
2022-09-07T20:00:23.125Z,100940.00
2022-09-07T20:02:50.313Z,100931.00
2022-09-07T20:05:17.724Z,100931.00
2022-09-07T20:07:44.231Z,100929.00
2022-09-07T20:10:10.815Z,100925.00
2022-09-07T20:12:37.258Z,100921.00
2022-09-07T20:15:05.316Z,100915.00
2022-09-07T20:17:35.205Z,100916.00
2022-09-07T20:20:02.302Z,100923.00
2022-09-07T20:22:28.857Z,100914.00
2022-09-07T20:24:55.312Z,100920.00
2022-09-07T20:27:21.831Z,100924.00
2022-09-07T20:29:48.244Z,100923.00
2022-09-07T20:32:15.154Z,100919.00
2022-09-07T20:34:41.666Z,100919.00
2022-09-07T20:37:09.322Z,100918.00
2022-09-07T20:39:39.141Z,100911.00
2022-09-07T20:42:06.740Z,100907.00
2022-09-07T20:44:33.281Z,100915.00
2022-09-07T20:46:59.828Z,100911.00
2022-09-07T20:49:26.340Z,100917.00
2022-09-07T20:51:52.797Z,100923.00
2022-09-07T20:54:20.872Z,100921.00
2022-09-07T20:56:47.999Z,100917.00
2022-09-07T20:59:15.352Z,100922.00
2022-09-07T21:01:41.917Z,100918.00
2022-09-07T21:04:08.479Z,100914.00
2022-09-07T21:06:35.004Z,100919.00
2022-09-07T21:09:01.626Z,100922.00
2022-09-07T21:11:29.214Z,100931.00
2022-09-07T21:13:59.774Z,100922.00
2022-09-07T21:16:26.901Z,100925.00
2022-09-07T21:18:57.458Z,100928.00
2022-09-07T21:21:26.568Z,100925.00
2022-09-07T21:23:56.923Z,100924.00
2022-09-07T21:26:23.970Z,100924.00
2022-09-07T21:28:56.935Z,100929.00
2022-09-07T21:31:23.688Z,100926.00
2022-09-07T21:33:53.503Z,100920.00
2022-09-07T21:36:23.252Z,100929.00
2022-09-07T21:38:50.087Z,100923.00
2022-09-07T21:41:17.364Z,100928.00
2022-09-07T21:43:43.866Z,100915.00
2022-09-07T21:46:11.660Z,100910.00
2022-09-07T21:48:38.561Z,100911.00
2022-09-07T21:51:05.271Z,100904.00
2022-09-07T21:53:35.864Z,100905.00
2022-09-07T21:56:03.514Z,100905.00
2022-09-07T21:58:30.147Z,100905.00
2022-09-07T22:00:57.196Z,100907.00
2022-09-07T22:03:25.211Z,100908.00
2022-09-07T22:05:51.750Z,100909.00
2022-09-07T22:08:18.526Z,100906.00
2022-09-07T22:10:45.448Z,100897.00
2022-09-07T22:13:12.177Z,100894.00
2022-09-07T22:15:39.864Z,100896.00
2022-09-07T22:18:07.248Z,100893.00
2022-09-07T22:20:34.186Z,100889.00
2022-09-07T22:23:00.764Z,100889.00
2022-09-07T22:25:27.249Z,100888.00
2022-09-07T22:27:53.995Z,100880.00
2022-09-07T22:30:20.587Z,100879.00
2022-09-07T22:32:47.914Z,100882.00
2022-09-07T22:35:14.737Z,100882.00
2022-09-07T22:37:41.322Z,100884.00
2022-09-07T22:40:08.209Z,100884.00
2022-09-07T22:42:34.714Z,100882.00
2022-09-07T22:45:01.164Z,100875.00
2022-09-07T22:47:27.607Z,100876.00
2022-09-07T22:49:54.364Z,100868.00
2022-09-07T22:52:22.255Z,100885.00
2022-09-07T22:54:48.763Z,100886.00
2022-09-07T22:57:15.265Z,100894.00
2022-09-07T22:59:41.713Z,100891.00
2022-09-07T23:02:08.202Z,100891.00
2022-09-07T23:04:34.814Z,100892.00
2022-09-07T23:07:01.368Z,100895.00
2022-09-07T23:09:28.018Z,100896.00
2022-09-07T23:11:54.527Z,100900.00
2022-09-07T23:14:22.170Z,100887.00
2022-09-07T23:16:48.836Z,100884.00
2022-09-07T23:19:18.959Z,100878.00
2022-09-07T23:21:45.592Z,100869.00
2022-09-07T23:24:13.508Z,100877.00
2022-09-07T23:26:40.031Z,100880.00
2022-09-07T23:29:06.644Z,100882.00
2022-09-07T23:31:34.605Z,100872.00
2022-09-07T23:34:01.809Z,100868.00
2022-09-07T23:36:28.385Z,100872.00
2022-09-07T23:38:56.148Z,100854.00
2022-09-07T23:41:22.996Z,100851.00
2022-09-07T23:43:49.473Z,100851.00
2022-09-07T23:46:16.242Z,100858.00
2022-09-07T23:48:46.827Z,100860.00
2022-09-07T23:51:13.513Z,100838.00
2022-09-07T23:53:40.177Z,100844.00
2022-09-07T23:56:07.442Z,100844.00
2022-09-07T23:58:33.974Z,100856.00
